Weather at Nevatim Air Base

Public forecast

Using degrees Celsius for public forecast. Weather courtesy of forecast.io.

Closest aviation weather report (METAR) to Nevatim Air Base

Closest report is Ben Gurion International Airport, 48.6 nm (90.1 km) N. Retrieved 2021/10/22 08:20 UTC (26 minutes ago):

LLBG 220820Z 34006KT CAVOK 26/14 Q1018 NOSIG

Closest aviation forecast (TAF) to Nevatim Air Base

Forecast is more than 12 hours old.

Closest forecast is El Gora Airport, 45.9 nm (85.1 km) W. Retrieved 2021/09/30 18:00 UTC (22 days ago):

TAF HEGR 301700Z 3018/0124 30008KT 9999 SCT025 TEMPO 0100/0106 VRB03KT 3000 BR